Time;durP1;ratioP1;P1;durP2;ratioP2;P2;SDS_P1;SDS_P2;PMS_P1;PMS_P2;Temp;Humidity;BMP_temperature;BMP_pressure;BME280_temperature;BME280_humidity;BME280_pressure;Samples;Min_cycle;Max_cycle;Signal;HPM_P1;HPM_P2
2023/08/17 00:00:03;;;;;;;8.93;6.43;;;21.60;90.60;;;;;;5114135;28;20427;-68
2023/08/17 00:02:30;;;;;;;6.53;5.90;;;21.60;90.60;;;;;;5113545;28;20899;-69
2023/08/17 00:04:57;;;;;;;9.80;8.40;;;21.60;90.60;;;;;;5113845;28;20439;-69
2023/08/17 00:07:24;;;;;;;6.90;5.80;;;21.60;90.60;;;;;;5113742;28;20488;-69
2023/08/17 00:09:52;;;;;;;9.77;7.20;;;21.60;90.50;;;;;;5114095;28;20512;-68
2023/08/17 00:12:19;;;;;;;10.43;6.80;;;21.60;90.60;;;;;;5112743;28;20936;-75
2023/08/17 00:14:46;;;;;;;8.37;6.47;;;21.50;90.50;;;;;;5113128;28;20509;-69
2023/08/17 00:17:13;;;;;;;9.67;6.60;;;21.50;90.70;;;;;;5112870;28;20496;-69
2023/08/17 00:19:42;;;;;;;8.70;6.47;;;21.50;90.90;;;;;;5113148;28;20932;-68
2023/08/17 00:22:09;;;;;;;6.90;6.20;;;21.40;91.10;;;;;;5113421;28;20492;-68
2023/08/17 00:24:36;;;;;;;11.43;6.60;;;21.30;91.20;;;;;;5113604;28;20901;-69
2023/08/17 00:27:05;;;;;;;7.87;6.50;;;21.30;91.30;;;;;;5113850;28;20835;-68
2023/08/17 00:29:34;;;;;;;7.37;6.40;;;21.30;91.40;;;;;;5113672;28;20968;-68
2023/08/17 00:32:02;;;;;;;7.97;6.50;;;21.30;91.50;;;;;;5113501;28;20451;-69
2023/08/17 00:34:29;;;;;;;7.40;6.30;;;21.30;91.50;;;;;;5114028;28;20458;-69
2023/08/17 00:36:56;;;;;;;8.70;5.70;;;21.30;91.50;;;;;;5114171;28;20449;-68
2023/08/17 00:39:23;;;;;;;7.30;6.60;;;21.30;91.10;;;;;;5113956;28;20485;-69
2023/08/17 00:41:50;;;;;;;9.37;6.83;;;21.30;90.80;;;;;;5113748;28;20469;-68
2023/08/17 00:44:18;;;;;;;13.63;6.43;;;21.30;90.80;;;;;;5113051;28;20439;-69
2023/08/17 00:46:45;;;;;;;8.13;7.10;;;21.20;91.10;;;;;;5113256;28;20485;-72
2023/08/17 00:49:14;;;;;;;6.67;5.93;;;21.20;91.20;;;;;;5114119;28;20441;-68
2023/08/17 00:51:41;;;;;;;7.83;6.33;;;21.10;91.30;;;;;;5114061;28;20838;-68
2023/08/17 00:54:08;;;;;;;7.33;6.00;;;21.10;91.10;;;;;;5113369;28;20838;-68
2023/08/17 00:56:36;;;;;;;7.87;6.40;;;21.10;90.90;;;;;;5113926;28;20505;-69
2023/08/17 00:59:03;;;;;;;7.87;6.90;;;21.10;91.10;;;;;;5113847;28;20462;-69
2023/08/17 01:01:32;;;;;;;10.50;7.07;;;21.10;91.10;;;;;;5113885;28;20537;-69
2023/08/17 01:03:59;;;;;;;9.07;7.33;;;21.10;90.80;;;;;;5113743;28;20470;-69
2023/08/17 01:06:26;;;;;;;8.60;7.37;;;21.10;91.10;;;;;;5113071;28;20528;-69
2023/08/17 01:08:53;;;;;;;7.83;6.23;;;21.00;91.20;;;;;;5113802;28;20835;-68
2023/08/17 01:11:29;;;;;;;8.27;7.40;;;20.90;91.40;;;;;;5114238;28;20541;-69
2023/08/17 01:14:04;;;;;;;8.93;7.20;;;20.80;91.80;;;;;;5113372;28;20489;-69
2023/08/17 01:16:41;;;;;;;7.97;6.97;;;20.70;92.20;;;;;;5113587;28;20490;-69
2023/08/17 01:19:10;;;;;;;9.40;7.30;;;20.70;92.40;;;;;;5117210;28;20426;-69
2023/08/17 01:21:42;;;;;;;8.97;7.17;;;20.70;92.60;;;;;;5117355;28;20466;-69
2023/08/17 01:24:12;;;;;;;8.37;6.53;;;20.70;92.60;;;;;;5117640;28;20774;-69
2023/08/17 01:26:42;;;;;;;10.23;6.70;;;20.70;92.50;;;;;;5117558;28;20438;-69
2023/08/17 01:29:09;;;;;;;10.73;6.93;;;20.70;92.60;;;;;;5117246;28;20480;-68
2023/08/17 01:31:48;;;;;;;8.30;5.73;;;20.70;92.70;;;;;;5116201;28;20498;-69
2023/08/17 01:34:23;;;;;;;8.20;7.23;;;20.70;92.50;;;;;;5117524;28;20426;-69
2023/08/17 01:36:55;;;;;;;10.57;6.93;;;20.70;92.30;;;;;;5117008;27;20471;-69
2023/08/17 01:39:28;;;;;;;7.80;6.93;;;20.70;92.30;;;;;;5117643;28;20426;-69
2023/08/17 01:41:58;;;;;;;8.60;6.67;;;20.60;92.20;;;;;;5116894;28;20419;-69
2023/08/17 01:44:27;;;;;;;8.13;6.73;;;20.60;92.40;;;;;;5116980;28;20435;-71
2023/08/17 01:46:54;;;;;;;8.70;7.27;;;20.60;92.60;;;;;;5117295;28;20800;-69
2023/08/17 01:49:21;;;;;;;7.30;6.50;;;20.60;92.60;;;;;;5117192;28;20480;-69
2023/08/17 01:51:50;;;;;;;7.60;6.73;;;20.60;92.80;;;;;;5116952;28;20440;-69
2023/08/17 01:54:18;;;;;;;12.37;6.83;;;20.60;92.90;;;;;;5116861;28;20436;-69
2023/08/17 01:56:46;;;;;;;8.20;6.80;;;20.60;92.90;;;;;;5117284;28;20470;-69
2023/08/17 01:59:14;;;;;;;7.17;6.27;;;20.50;92.80;;;;;;5116971;28;20781;-69
2023/08/17 02:01:41;;;;;;;10.83;7.00;;;20.50;92.70;;;;;;5116196;28;20472;-69
2023/08/17 02:04:08;;;;;;;6.97;6.27;;;20.50;92.90;;;;;;5116656;28;20433;-68
2023/08/17 02:06:35;;;;;;;6.83;5.90;;;20.50;92.80;;;;;;5117020;28;20438;-69
2023/08/17 02:09:02;;;;;;;9.13;7.40;;;20.40;92.90;;;;;;5116370;28;20434;-68
2023/08/17 02:11:29;;;;;;;8.10;6.73;;;20.40;93.00;;;;;;5116141;28;20433;-69
2023/08/17 02:13:58;;;;;;;8.63;7.20;;;20.40;93.20;;;;;;5116107;28;20469;-69
2023/08/17 02:16:25;;;;;;;9.50;7.30;;;20.40;93.00;;;;;;5116248;28;20469;-68
2023/08/17 02:18:52;;;;;;;7.60;6.80;;;20.30;93.50;;;;;;5116561;28;20438;-68
2023/08/17 02:21:20;;;;;;;8.23;6.67;;;20.20;93.30;;;;;;5115930;28;20461;-68
2023/08/17 02:23:47;;;;;;;7.80;6.23;;;20.20;93.30;;;;;;5116613;28;20441;-68
2023/08/17 02:26:16;;;;;;;7.47;6.70;;;20.20;93.20;;;;;;5116581;28;20442;-68
2023/08/17 02:28:43;;;;;;;8.13;6.50;;;20.20;93.30;;;;;;5115366;28;20435;-68
2023/08/17 02:31:12;;;;;;;8.67;5.53;;;20.20;93.30;;;;;;5115608;28;20442;-69
2023/08/17 02:33:39;;;;;;;9.57;6.63;;;20.20;93.10;;;;;;5115623;28;20470;-69
2023/08/17 02:36:07;;;;;;;6.83;6.00;;;20.20;93.00;;;;;;5115960;28;20466;-70
2023/08/17 02:38:34;;;;;;;7.47;6.13;;;20.20;92.80;;;;;;5116234;27;21046;-68
2023/08/17 02:41:01;;;;;;;8.10;7.10;;;20.10;92.70;;;;;;5116185;28;20897;-68
2023/08/17 02:43:32;;;;;;;7.60;6.80;;;20.10;93.10;;;;;;5115661;28;20431;-69
2023/08/17 02:46:00;;;;;;;9.63;6.70;;;20.10;93.30;;;;;;5116091;28;20788;-69
2023/08/17 02:48:28;;;;;;;8.27;7.00;;;20.00;93.70;;;;;;5115533;28;20437;-68
2023/08/17 02:50:56;;;;;;;9.77;7.73;;;20.00;93.40;;;;;;5115675;28;20442;-69
2023/08/17 02:53:23;;;;;;;8.50;6.37;;;20.00;93.50;;;;;;5115360;28;20441;-68
2023/08/17 02:55:50;;;;;;;7.90;7.10;;;19.90;93.40;;;;;;5115506;28;20476;-69
2023/08/17 02:58:17;;;;;;;7.37;6.60;;;20.00;93.40;;;;;;5115717;28;20444;-69
2023/08/17 03:00:44;;;;;;;7.87;7.07;;;19.90;93.40;;;;;;5114663;28;20958;-69
2023/08/17 03:03:12;;;;;;;8.30;7.50;;;19.90;93.60;;;;;;5115854;28;20803;-69
2023/08/17 03:05:40;;;;;;;9.63;7.30;;;19.90;93.70;;;;;;5114851;28;20435;-69
2023/08/17 03:08:08;;;;;;;7.80;6.27;;;19.90;93.70;;;;;;5115124;28;20544;-68
2023/08/17 03:10:35;;;;;;;6.93;5.97;;;19.90;94.10;;;;;;5115083;28;20857;-68
2023/08/17 03:13:02;;;;;;;6.97;6.13;;;19.80;93.60;;;;;;5114887;28;20430;-68
2023/08/17 03:15:29;;;;;;;8.30;7.00;;;19.80;93.70;;;;;;5114875;28;20469;-68
2023/08/17 03:17:57;;;;;;;7.70;6.90;;;19.80;93.90;;;;;;5115231;28;20601;-69
2023/08/17 03:20:24;;;;;;;7.23;6.53;;;19.80;94.00;;;;;;5114934;28;20517;-69
2023/08/17 03:22:52;;;;;;;7.27;6.57;;;19.80;94.00;;;;;;5114830;28;20439;-68
2023/08/17 03:25:20;;;;;;;8.90;7.70;;;19.80;94.10;;;;;;5113169;28;20439;-69
2023/08/17 03:27:47;;;;;;;9.13;7.17;;;19.80;94.30;;;;;;5114956;28;20875;-68
2023/08/17 03:30:15;;;;;;;10.93;7.10;;;19.80;94.60;;;;;;5115038;28;20431;-70
2023/08/17 03:32:43;;;;;;;11.90;7.50;;;19.80;94.90;;;;;;5114986;28;20766;-68
2023/08/17 03:35:10;;;;;;;11.40;7.50;;;19.70;95.00;;;;;;5114395;28;20444;-69
2023/08/17 03:37:38;;;;;;;12.70;7.67;;;19.80;95.20;;;;;;5114844;28;20924;-69
2023/08/17 03:40:08;;;;;;;8.67;7.40;;;19.80;95.30;;;;;;5114832;28;20431;-68
2023/08/17 03:42:35;;;;;;;8.97;7.43;;;19.90;95.40;;;;;;5114844;28;20828;-68
2023/08/17 03:45:03;;;;;;;16.30;7.53;;;19.90;95.30;;;;;;5114182;28;20960;-69
2023/08/17 03:47:30;;;;;;;8.77;6.60;;;19.80;95.30;;;;;;5114368;28;20442;-68
2023/08/17 03:49:58;;;;;;;8.10;6.80;;;19.90;95.60;;;;;;5114692;28;20436;-68
2023/08/17 03:52:25;;;;;;;7.60;6.80;;;19.90;95.60;;;;;;5115065;28;20516;-69
2023/08/17 03:54:52;;;;;;;8.57;7.63;;;19.90;95.50;;;;;;5114418;28;20426;-68
2023/08/17 03:57:21;;;;;;;8.73;7.83;;;19.90;95.30;;;;;;5114144;28;20470;-68
2023/08/17 03:59:48;;;;;;;7.60;6.80;;;19.90;95.00;;;;;;5114854;28;20431;-69
2023/08/17 04:02:16;;;;;;;8.50;7.00;;;19.90;94.90;;;;;;5114423;28;20517;-69
2023/08/17 04:04:43;;;;;;;8.20;7.40;;;19.80;94.80;;;;;;5114133;28;20438;-68
2023/08/17 04:07:10;;;;;;;9.10;6.70;;;19.80;94.90;;;;;;5114221;28;20444;-69
2023/08/17 04:09:44;;;;;;;8.13;7.20;;;19.80;95.00;;;;;;5114082;28;20867;-69
2023/08/17 04:12:11;;;;;;;10.30;6.93;;;19.80;94.90;;;;;;5114006;28;20410;-69
2023/08/17 04:14:40;;;;;;;13.53;7.40;;;19.80;95.00;;;;;;5113565;28;20441;-69
2023/08/17 04:17:07;;;;;;;7.90;6.07;;;19.80;94.90;;;;;;5114302;28;20480;-69
2023/08/17 04:19:34;;;;;;;9.33;6.90;;;19.70;94.80;;;;;;5114024;28;20433;-68
2023/08/17 04:22:06;;;;;;;7.57;6.30;;;19.70;94.60;;;;;;5113673;28;20466;-68
2023/08/17 04:24:35;;;;;;;7.27;5.90;;;19.70;94.40;;;;;;5113278;28;20435;-69
2023/08/17 04:27:03;;;;;;;10.03;6.87;;;19.70;94.20;;;;;;5113155;28;20472;-68
2023/08/17 04:29:31;;;;;;;7.57;6.70;;;19.60;94.10;;;;;;5113492;28;20483;-69
2023/08/17 04:32:00;;;;;;;7.57;6.07;;;19.60;94.20;;;;;;5113701;28;20429;-68
2023/08/17 04:34:27;;;;;;;12.70;7.03;;;19.60;94.30;;;;;;5113179;28;20426;-68
2023/08/17 04:36:55;;;;;;;11.77;7.50;;;19.50;94.40;;;;;;5112786;28;20554;-69
2023/08/17 04:39:22;;;;;;;9.60;7.70;;;19.50;94.80;;;;;;5113692;28;20441;-70
2023/08/17 04:41:51;;;;;;;7.30;6.50;;;19.50;95.20;;;;;;5113586;28;20448;-69
2023/08/17 04:44:19;;;;;;;8.20;6.40;;;19.50;95.10;;;;;;5113050;28;20438;-68
2023/08/17 04:46:46;;;;;;;7.10;6.23;;;19.50;95.00;;;;;;5113027;28;20449;-68
2023/08/17 04:49:15;;;;;;;7.10;6.40;;;19.50;94.90;;;;;;5113330;28;20955;-68
2023/08/17 04:51:42;;;;;;;8.23;6.10;;;19.40;94.90;;;;;;5113933;28;20438;-68
2023/08/17 04:54:09;;;;;;;7.53;6.70;;;19.50;95.10;;;;;;5117589;28;20786;-69
2023/08/17 04:56:36;;;;;;;8.33;6.73;;;19.50;95.10;;;;;;5097428;28;20467;-69
2023/08/17 04:59:04;;;;;;;11.37;7.57;;;19.50;95.20;;;;;;5097230;28;20888;-68
2023/08/17 05:01:31;;;;;;;7.93;6.23;;;19.50;95.20;;;;;;5096994;28;20439;-70
2023/08/17 05:04:01;;;;;;;11.80;6.80;;;19.50;95.30;;;;;;5109988;28;20437;-68
2023/08/17 05:06:32;;;;;;;6.93;6.23;;;19.50;95.50;;;;;;5117398;28;20430;-69
2023/08/17 05:09:00;;;;;;;7.80;6.63;;;19.50;95.90;;;;;;5117308;28;20440;-69
2023/08/17 05:11:30;;;;;;;9.30;7.00;;;19.50;96.00;;;;;;5117605;28;20434;-69
2023/08/17 05:13:58;;;;;;;7.80;6.80;;;19.60;96.20;;;;;;5117466;28;20839;-69
2023/08/17 05:16:25;;;;;;;11.33;8.27;;;19.60;96.40;;;;;;5117339;28;20473;-69
2023/08/17 05:18:53;;;;;;;10.70;8.00;;;19.70;96.50;;;;;;5116941;28;20435;-69
2023/08/17 05:21:23;;;;;;;12.70;7.53;;;19.70;96.50;;;;;;5117434;28;20918;-69
2023/08/17 05:23:51;;;;;;;10.47;9.17;;;19.80;96.60;;;;;;5115108;28;20519;-70
2023/08/17 05:26:21;;;;;;;9.60;7.73;;;19.80;96.90;;;;;;5116042;28;20499;-69
2023/08/17 05:28:48;;;;;;;10.20;8.23;;;19.80;97.10;;;;;;5115568;28;20946;-70
2023/08/17 05:31:17;;;;;;;7.53;6.80;;;19.80;97.00;;;;;;5116334;28;20490;-69
2023/08/17 05:33:44;;;;;;;11.43;7.87;;;19.70;97.40;;;;;;5116270;28;20443;-69
2023/08/17 05:36:13;;;;;;;11.87;8.10;;;19.70;97.80;;;;;;5116368;28;20469;-69
2023/08/17 05:38:40;;;;;;;8.50;6.87;;;19.70;98.00;;;;;;5115185;28;20441;-71
2023/08/17 05:41:09;;;;;;;7.83;7.10;;;19.80;98.50;;;;;;5115937;28;20438;-69
2023/08/17 05:43:36;;;;;;;9.83;7.20;;;19.90;98.50;;;;;;5116824;28;20431;-69
2023/08/17 05:46:03;;;;;;;8.67;6.70;;;20.00;98.50;;;;;;5116201;28;20454;-69
2023/08/17 05:48:31;;;;;;;7.53;6.40;;;20.10;98.50;;;;;;5116073;28;20431;-69
2023/08/17 05:50:58;;;;;;;7.20;6.50;;;20.30;98.80;;;;;;5116075;28;20438;-70
2023/08/17 05:53:25;;;;;;;9.67;6.87;;;20.40;98.90;;;;;;5115751;28;20441;-69
2023/08/17 05:55:52;;;;;;;8.07;6.70;;;20.50;99.00;;;;;;5116209;28;20434;-70
2023/08/17 05:58:21;;;;;;;9.50;6.73;;;20.60;98.80;;;;;;5115610;28;20950;-69
2023/08/17 06:00:48;;;;;;;8.10;5.97;;;20.70;98.40;;;;;;5115915;28;20533;-69
2023/08/17 06:03:15;;;;;;;7.07;5.60;;;20.70;98.00;;;;;;5115815;28;20437;-69
2023/08/17 06:05:43;;;;;;;7.20;6.40;;;20.80;98.10;;;;;;5115507;28;20515;-71
2023/08/17 06:08:10;;;;;;;7.07;5.53;;;20.90;98.20;;;;;;5115621;28;20969;-69
2023/08/17 06:10:37;;;;;;;6.53;5.40;;;21.00;98.30;;;;;;5114654;28;20545;-74
2023/08/17 06:13:04;;;;;;;6.17;5.50;;;21.20;98.40;;;;;;5115620;28;20427;-69
2023/08/17 06:15:33;;;;;;;6.67;4.77;;;21.30;98.00;;;;;;5115602;28;20799;-69
2023/08/17 06:18:00;;;;;;;7.10;5.50;;;21.30;97.50;;;;;;5112362;28;20478;-69
2023/08/17 06:20:28;;;;;;;6.00;5.10;;;21.30;97.60;;;;;;5115117;28;20474;-70
2023/08/17 06:22:55;;;;;;;7.50;5.40;;;21.40;97.50;;;;;;5115493;28;20483;-69
2023/08/17 06:25:22;;;;;;;9.60;5.60;;;21.50;97.20;;;;;;5115144;28;20517;-70
2023/08/17 06:27:50;;;;;;;6.93;5.13;;;21.60;97.30;;;;;;5114795;28;20439;-69
2023/08/17 06:30:18;;;;;;;7.43;5.00;;;21.70;97.40;;;;;;5115351;28;20438;-69
2023/08/17 06:32:46;;;;;;;7.60;4.77;;;21.90;97.50;;;;;;5114672;28;20491;-71
2023/08/17 06:35:14;;;;;;;6.63;4.90;;;22.00;97.40;;;;;;5114544;28;20435;-70
2023/08/17 06:37:43;;;;;;;5.20;4.13;;;22.10;97.10;;;;;;5115161;28;20474;-69
2023/08/17 06:40:11;;;;;;;6.70;3.83;;;22.20;96.70;;;;;;5114597;28;20514;-69
2023/08/17 06:42:38;;;;;;;5.13;4.23;;;22.20;95.90;;;;;;5114956;28;20431;-69
2023/08/17 06:45:07;;;;;;;7.90;4.30;;;22.30;94.60;;;;;;5114771;28;20449;-69
2023/08/17 06:47:34;;;;;;;7.00;4.70;;;22.30;94.60;;;;;;5115702;28;20481;-69
2023/08/17 06:50:03;;;;;;;5.73;4.33;;;22.40;94.90;;;;;;5115206;28;20466;-69
2023/08/17 06:52:30;;;;;;;5.83;4.83;;;22.50;94.90;;;;;;5115692;28;20441;-69
2023/08/17 06:54:57;;;;;;;6.80;4.93;;;22.60;94.50;;;;;;5115696;28;20431;-69
2023/08/17 06:57:24;;;;;;;6.17;4.83;;;22.70;94.60;;;;;;5115510;28;20510;-70
2023/08/17 06:59:51;;;;;;;9.07;5.03;;;22.90;94.60;;;;;;5115633;28;20431;-69
2023/08/17 07:02:18;;;;;;;10.10;4.77;;;23.00;94.50;;;;;;5115539;28;20508;-69
2023/08/17 07:04:45;;;;;;;6.97;4.87;;;23.10;94.60;;;;;;5115224;28;20426;-69
2023/08/17 07:07:14;;;;;;;5.70;4.70;;;23.20;94.80;;;;;;5115445;28;20442;-69
2023/08/17 07:09:41;;;;;;;6.43;4.23;;;23.40;94.40;;;;;;5115068;28;20802;-69
2023/08/17 07:12:08;;;;;;;6.20;4.40;;;23.50;94.30;;;;;;5115261;28;20473;-75
2023/08/17 07:14:35;;;;;;;9.50;4.57;;;23.60;94.30;;;;;;5114818;28;20479;-70
2023/08/17 07:17:02;;;;;;;6.27;4.50;;;23.70;94.30;;;;;;5115363;28;20474;-69
2023/08/17 07:19:29;;;;;;;11.00;4.10;;;23.80;94.40;;;;;;5113462;28;20766;-69
2023/08/17 07:21:56;;;;;;;6.30;4.33;;;23.90;94.30;;;;;;5115183;28;20810;-69
2023/08/17 07:24:24;;;;;;;6.80;4.67;;;24.10;93.50;;;;;;5115271;28;20531;-69
2023/08/17 07:26:51;;;;;;;8.67;4.07;;;24.20;93.10;;;;;;5115001;28;20850;-69
2023/08/17 07:29:18;;;;;;;6.10;4.13;;;24.30;93.30;;;;;;5114614;28;20492;-69
2023/08/17 07:31:45;;;;;;;7.90;4.30;;;24.50;93.40;;;;;;5114953;28;20510;-70
2023/08/17 07:34:12;;;;;;;8.90;4.00;;;24.60;93.10;;;;;;5115145;28;20833;-70
2023/08/17 07:36:39;;;;;;;6.70;4.20;;;24.80;92.60;;;;;;5114986;28;20457;-71
2023/08/17 07:39:06;;;;;;;7.97;4.67;;;24.90;92.10;;;;;;5114924;28;20422;-69
2023/08/17 07:41:35;;;;;;;8.77;4.40;;;25.10;92.40;;;;;;5114115;28;20511;-69
2023/08/17 07:44:02;;;;;;;9.73;4.23;;;25.30;92.20;;;;;;5114627;28;20461;-69
2023/08/17 07:46:29;;;;;;;7.33;4.37;;;25.50;91.30;;;;;;5114579;28;20442;-69
2023/08/17 07:48:56;;;;;;;6.27;4.70;;;25.80;91.10;;;;;;5114526;28;20426;-69
2023/08/17 07:51:23;;;;;;;7.87;3.60;;;25.90;90.70;;;;;;5114256;28;20518;-69
2023/08/17 07:53:50;;;;;;;5.87;4.00;;;26.20;87.70;;;;;;5114507;28;20466;-69
2023/08/17 07:56:17;;;;;;;10.10;4.87;;;26.40;85.40;;;;;;5113513;28;20466;-69
2023/08/17 07:58:45;;;;;;;4.93;4.10;;;26.50;82.70;;;;;;5113579;28;20868;-69
2023/08/17 08:01:12;;;;;;;5.77;3.30;;;26.50;78.00;;;;;;5114329;28;20423;-71
2023/08/17 08:03:39;;;;;;;10.53;3.97;;;26.60;79.90;;;;;;5114158;28;20466;-69
2023/08/17 08:06:09;;;;;;;6.90;4.10;;;26.70;78.40;;;;;;5113931;28;20514;-69
2023/08/17 08:08:36;;;;;;;9.90;4.07;;;26.90;79.70;;;;;;5114285;28;20520;-69
2023/08/17 08:11:04;;;;;;;5.10;3.47;;;27.10;80.50;;;;;;5114263;28;20549;-70
2023/08/17 08:13:31;;;;;;;5.10;3.70;;;27.30;78.60;;;;;;5113590;28;20466;-69
2023/08/17 08:16:00;;;;;;;6.80;3.93;;;27.50;77.70;;;;;;5114393;28;20458;-69
2023/08/17 08:18:27;;;;;;;4.80;3.40;;;27.70;77.90;;;;;;5113653;28;20474;-69
2023/08/17 08:20:54;;;;;;;7.20;4.93;;;27.90;76.50;;;;;;5113810;28;20948;-69
2023/08/17 08:23:21;;;;;;;4.23;3.53;;;28.10;75.60;;;;;;5114095;28;20459;-69
2023/08/17 08:25:48;;;;;;;7.77;3.90;;;28.30;76.60;;;;;;5114442;28;20486;-69
2023/08/17 08:28:15;;;;;;;4.00;3.60;;;28.50;75.70;;;;;;5112942;28;20978;-69
2023/08/17 08:30:42;;;;;;;6.43;3.80;;;28.60;74.00;;;;;;5113691;28;20426;-69
2023/08/17 08:33:10;;;;;;;9.33;4.00;;;28.80;73.90;;;;;;5113590;28;20529;-69
2023/08/17 08:35:37;;;;;;;9.13;3.37;;;29.00;70.60;;;;;;5113897;28;20921;-70
2023/08/17 08:38:04;;;;;;;10.10;4.23;;;29.20;68.60;;;;;;5113886;28;20470;-70
2023/08/17 08:40:32;;;;;;;5.53;4.23;;;29.40;67.90;;;;;;5113819;28;20438;-70
2023/08/17 08:42:59;;;;;;;5.47;3.60;;;29.60;66.70;;;;;;5113962;28;20426;-70
2023/08/17 08:45:28;;;;;;;6.17;3.80;;;29.80;65.00;;;;;;5113548;28;20906;-69
2023/08/17 08:47:57;;;;;;;7.50;3.50;;;30.00;64.80;;;;;;5113742;28;20466;-69
2023/08/17 08:50:29;;;;;;;5.57;3.73;;;30.10;64.40;;;;;;5113845;28;20430;-69
2023/08/17 08:53:02;;;;;;;4.97;3.43;;;30.30;64.40;;;;;;5113867;28;20924;-69
2023/08/17 08:55:34;;;;;;;6.80;3.47;;;30.40;62.50;;;;;;5113701;28;20510;-69
2023/08/17 08:58:01;;;;;;;4.57;3.67;;;30.60;61.50;;;;;;5113255;28;20542;-69
2023/08/17 09:00:34;;;;;;;5.50;3.63;;;30.70;59.50;;;;;;5113305;28;20449;-69
2023/08/17 09:03:03;;;;;;;8.63;3.20;;;30.90;57.60;;;;;;5113607;28;20501;-70
2023/08/17 09:05:34;;;;;;;6.03;3.40;;;31.10;56.00;;;;;;5113640;28;20479;-69
2023/08/17 09:08:02;;;;;;;5.53;3.37;;;31.20;55.50;;;;;;5113796;28;20455;-70
2023/08/17 09:10:30;;;;;;;5.07;3.50;;;31.30;55.50;;;;;;5113335;28;20506;-69
2023/08/17 09:12:57;;;;;;;8.77;4.83;;;31.50;54.60;;;;;;5113422;28;20446;-69
2023/08/17 09:15:23;;;;;;;6.43;4.00;;;31.60;54.80;;;;;;5113525;28;20497;-69
2023/08/17 09:17:52;;;;;;;4.27;3.50;;;31.70;55.30;;;;;;5113099;28;20479;-69
2023/08/17 09:20:40;;;;;;;4.87;3.67;;;32.00;54.40;;;;;;5113495;28;20454;-70
2023/08/17 09:23:13;;;;;;;6.90;2.93;;;32.20;52.50;;;;;;5113455;28;20439;-69
2023/08/17 09:25:41;;;;;;;4.90;3.30;;;32.40;53.20;;;;;;5113204;28;20427;-69
2023/08/17 09:28:09;;;;;;;5.70;3.03;;;32.50;52.40;;;;;;5113027;28;20474;-71
2023/08/17 09:30:54;;;;;;;5.60;3.43;;;32.70;52.00;;;;;;5113379;28;20427;-70
2023/08/17 09:33:28;;;;;;;5.90;4.17;;;32.80;51.90;;;;;;5113417;28;20469;-70
2023/08/17 09:35:57;;;;;;;4.67;2.93;;;33.00;50.20;;;;;;5113440;28;20430;-70
2023/08/17 09:38:23;;;;;;;4.30;3.20;;;33.10;50.00;;;;;;5114282;28;20964;-70
2023/08/17 09:40:51;;;;;;;3.60;3.00;;;33.20;48.80;;;;;;5116863;28;20438;-69
2023/08/17 09:43:20;;;;;;;3.47;2.90;;;33.30;49.10;;;;;;5117474;27;20441;-69
2023/08/17 09:45:49;;;;;;;5.20;3.20;;;33.50;49.30;;;;;;5117162;28;20492;-69
2023/08/17 09:48:18;;;;;;;4.03;2.70;;;33.50;47.60;;;;;;5116776;28;20438;-69
2023/08/17 09:50:46;;;;;;;6.20;3.03;;;33.70;45.20;;;;;;5117009;28;20521;-69
2023/08/17 09:53:16;;;;;;;5.60;3.10;;;33.70;46.90;;;;;;5116915;28;20474;-70
2023/08/17 09:55:43;;;;;;;4.40;3.00;;;33.90;47.50;;;;;;5117010;28;20565;-69
2023/08/17 09:58:14;;;;;;;4.00;2.77;;;34.00;47.40;;;;;;5116625;28;20606;-69
2023/08/17 10:00:46;;;;;;;5.10;3.30;;;34.10;46.00;;;;;;5116815;28;20419;-69
2023/08/17 10:03:15;;;;;;;5.00;3.20;;;34.20;44.80;;;;;;5116805;28;20457;-69
2023/08/17 10:05:45;;;;;;;4.77;3.20;;;34.20;45.10;;;;;;5116713;28;20438;-70
2023/08/17 10:08:13;;;;;;;3.90;2.60;;;34.30;45.20;;;;;;5116683;28;20502;-69
2023/08/17 10:10:44;;;;;;;4.83;3.27;;;34.40;45.30;;;;;;5115969;28;20558;-69
2023/08/17 10:13:13;;;;;;;8.83;3.30;;;34.40;44.60;;;;;;5116517;28;20450;-70
2023/08/17 10:15:46;;;;;;;5.33;3.20;;;34.40;45.20;;;;;;5116476;28;20500;-69
2023/08/17 10:18:22;;;;;;;4.70;3.30;;;34.60;45.10;;;;;;5095286;27;20557;-70
2023/08/17 10:21:01;;;;;;;4.70;3.00;;;34.50;44.00;;;;;;5117356;27;20446;-70
2023/08/17 10:23:29;;;;;;;4.93;3.40;;;34.40;42.20;;;;;;5106072;27;20430;-70
2023/08/17 10:25:58;;;;;;;5.00;3.43;;;34.40;43.10;;;;;;5123674;27;20450;-69
2023/08/17 10:28:26;;;;;;;4.50;3.17;;;34.40;43.50;;;;;;5133352;27;20442;-69
2023/08/17 10:30:53;;;;;;;7.73;3.30;;;34.40;43.90;;;;;;5136677;27;20468;-69
2023/08/17 10:33:20;;;;;;;4.83;3.30;;;34.50;44.70;;;;;;5124604;27;20438;-69
2023/08/17 10:35:48;;;;;;;5.53;2.90;;;34.60;43.10;;;;;;5115699;28;20496;-69
2023/08/17 10:38:17;;;;;;;4.63;3.40;;;34.60;40.00;;;;;;5115563;28;20467;-70
2023/08/17 10:40:46;;;;;;;4.43;3.30;;;34.60;41.20;;;;;;5116036;28;20438;-69
2023/08/17 10:43:14;;;;;;;6.83;3.40;;;34.60;42.10;;;;;;5115857;28;20427;-70
2023/08/17 10:45:44;;;;;;;5.97;2.90;;;34.60;42.40;;;;;;5115424;28;20529;-73
2023/08/17 10:48:28;;;;;;;7.23;3.73;;;34.70;40.20;;;;;;5115849;28;20431;-70
2023/08/17 10:51:05;;;;;;;4.00;3.40;;;34.70;39.80;;;;;;5114408;28;20455;-70
2023/08/17 10:53:42;;;;;;;7.10;3.20;;;34.70;41.40;;;;;;5115317;28;20506;-70
2023/08/17 10:56:13;;;;;;;4.30;2.97;;;34.80;40.00;;;;;;5115402;28;20421;-69
2023/08/17 10:58:43;;;;;;;4.30;3.40;;;34.80;39.40;;;;;;5115736;28;20555;-69
2023/08/17 11:01:11;;;;;;;4.80;2.80;;;34.90;39.40;;;;;;5115163;28;20949;-69
2023/08/17 11:03:38;;;;;;;10.10;3.57;;;34.90;39.90;;;;;;5113598;27;20445;-70
2023/08/17 11:06:18;;;;;;;5.57;3.47;;;35.00;40.40;;;;;;5113301;28;20530;-72
2023/08/17 11:08:56;;;;;;;6.87;3.40;;;35.00;39.00;;;;;;5114541;28;20436;-69
2023/08/17 11:11:24;;;;;;;6.23;3.63;;;35.00;39.90;;;;;;5113462;28;20562;-69
2023/08/17 11:13:54;;;;;;;5.80;4.03;;;35.10;40.60;;;;;;5114228;28;20522;-70
2023/08/17 11:16:21;;;;;;;4.93;3.30;;;35.20;40.00;;;;;;5094643;28;20480;-69
2023/08/17 11:18:49;;;;;;;3.90;3.50;;;35.20;38.60;;;;;;5094249;28;20554;-69
2023/08/17 11:21:17;;;;;;;3.97;3.43;;;35.20;39.10;;;;;;5114038;28;20444;-69
2023/08/17 11:23:44;;;;;;;5.07;3.70;;;35.20;40.20;;;;;;5112231;28;20471;-70
2023/08/17 11:26:16;;;;;;;4.47;3.80;;;35.20;40.90;;;;;;5103805;28;20431;-69
2023/08/17 11:28:44;;;;;;;4.57;3.40;;;35.20;38.70;;;;;;5113782;28;20520;-70
2023/08/17 11:31:15;;;;;;;4.43;3.80;;;35.20;39.30;;;;;;5113687;28;20583;-70
2023/08/17 11:33:42;;;;;;;5.43;3.20;;;35.20;37.80;;;;;;5114278;28;20476;-69
2023/08/17 11:36:10;;;;;;;7.77;3.40;;;35.10;39.00;;;;;;5114674;28;20447;-70
2023/08/17 11:38:38;;;;;;;4.90;3.40;;;35.20;40.00;;;;;;5114283;28;20561;-69
2023/08/17 11:41:08;;;;;;;4.70;3.03;;;35.20;40.90;;;;;;5114655;28;20453;-69
2023/08/17 11:43:35;;;;;;;5.97;3.50;;;35.20;39.40;;;;;;5110935;27;20468;-70
2023/08/17 11:46:02;;;;;;;4.40;3.40;;;35.20;37.60;;;;;;5108847;27;20513;-69
2023/08/17 11:48:34;;;;;;;7.20;4.07;;;35.20;38.00;;;;;;5120452;27;20514;-69
2023/08/17 11:51:01;;;;;;;5.00;3.47;;;35.20;36.20;;;;;;5116264;27;20447;-70
2023/08/17 11:53:34;;;;;;;3.70;3.13;;;35.20;37.30;;;;;;5118227;27;20442;-70
2023/08/17 11:56:02;;;;;;;5.13;3.30;;;35.20;37.40;;;;;;5130699;27;20913;-70
2023/08/17 11:58:47;;;;;;;4.47;3.33;;;35.20;37.70;;;;;;5114130;28;20800;-70
2023/08/17 12:01:15;;;;;;;3.73;2.80;;;35.30;36.60;;;;;;5114354;28;20453;-70
2023/08/17 12:03:44;;;;;;;4.50;3.17;;;35.30;35.40;;;;;;5114290;28;20434;-69
2023/08/17 12:06:12;;;;;;;4.00;2.67;;;35.30;34.60;;;;;;5128106;27;20478;-70
2023/08/17 12:08:45;;;;;;;4.07;3.17;;;35.30;34.90;;;;;;5134873;27;20520;-69
2023/08/17 12:11:13;;;;;;;3.60;2.43;;;35.20;34.60;;;;;;5130532;27;20533;-69
2023/08/17 12:13:40;;;;;;;4.13;3.00;;;35.30;33.80;;;;;;5122938;27;20430;-69
2023/08/17 12:16:15;;;;;;;6.07;2.80;;;35.30;33.00;;;;;;5130630;27;20956;-69
2023/08/17 12:18:45;;;;;;;3.47;2.80;;;35.20;33.30;;;;;;5114233;28;20796;-69
2023/08/17 12:21:12;;;;;;;4.27;2.70;;;35.20;33.40;;;;;;5113733;28;20458;-69
2023/08/17 12:23:39;;;;;;;7.90;3.00;;;35.30;34.20;;;;;;5114073;28;20514;-69
2023/08/17 12:26:06;;;;;;;3.53;2.80;;;35.30;34.00;;;;;;5113947;28;20495;-69
2023/08/17 12:28:34;;;;;;;4.47;3.20;;;35.30;34.50;;;;;;5113984;28;20499;-69
2023/08/17 12:31:02;;;;;;;3.40;2.60;;;35.30;34.70;;;;;;5113984;28;20481;-69
2023/08/17 12:33:29;;;;;;;5.43;3.37;;;35.30;34.00;;;;;;5113615;28;20986;-69
2023/08/17 12:35:58;;;;;;;4.90;3.23;;;35.30;33.20;;;;;;5120373;27;20462;-69
2023/08/17 12:38:26;;;;;;;7.13;3.30;;;35.20;32.70;;;;;;5113552;28;20470;-70
2023/08/17 12:40:53;;;;;;;5.40;3.73;;;35.10;33.40;;;;;;5113933;28;20518;-69
2023/08/17 12:43:20;;;;;;;5.00;3.80;;;35.00;33.40;;;;;;5113675;28;20483;-69
2023/08/17 12:45:47;;;;;;;4.87;3.63;;;34.70;33.70;;;;;;5113827;28;20518;-69
2023/08/17 12:48:14;;;;;;;6.00;3.93;;;34.50;34.00;;;;;;5113681;28;20430;-69
2023/08/17 12:50:41;;;;;;;3.93;3.07;;;34.40;36.90;;;;;;5113523;28;20438;-70